sensor_id;sensor_type;location;lat;lon;timestamp;P1;durP1;ratioP1;P2;durP2;ratioP2
6121;SDS011;3091;51.506;7.672;2023-02-28T00:00:24;19.67;;;18.47;;
6121;SDS011;3091;51.506;7.672;2023-02-28T00:02:51;17.47;;;16.77;;
6121;SDS011;3091;51.506;7.672;2023-02-28T00:05:18;19.53;;;18.73;;
6121;SDS011;3091;51.506;7.672;2023-02-28T00:07:44;17.90;;;17.20;;
6121;SDS011;3091;51.506;7.672;2023-02-28T00:10:11;16.93;;;16.33;;
6121;SDS011;3091;51.506;7.672;2023-02-28T00:12:38;16.70;;;16.10;;
6121;SDS011;3091;51.506;7.672;2023-02-28T00:15:08;17.17;;;16.47;;
6121;SDS011;3091;51.506;7.672;2023-02-28T00:17:34;17.20;;;16.50;;
6121;SDS011;3091;51.506;7.672;2023-02-28T00:20:01;17.13;;;16.43;;
6121;SDS011;3091;51.506;7.672;2023-02-28T00:22:27;17.00;;;16.30;;
6121;SDS011;3091;51.506;7.672;2023-02-28T00:24:53;16.80;;;16.20;;
6121;SDS011;3091;51.506;7.672;2023-02-28T00:27:19;17.20;;;16.50;;
6121;SDS011;3091;51.506;7.672;2023-02-28T00:29:46;17.13;;;16.43;;
6121;SDS011;3091;51.506;7.672;2023-02-28T00:32:12;17.33;;;16.63;;
6121;SDS011;3091;51.506;7.672;2023-02-28T00:34:38;18.40;;;17.60;;
6121;SDS011;3091;51.506;7.672;2023-02-28T00:37:07;17.87;;;17.17;;
6121;SDS011;3091;51.506;7.672;2023-02-28T00:39:35;17.90;;;17.20;;
6121;SDS011;3091;51.506;7.672;2023-02-28T00:42:02;18.03;;;17.33;;
6121;SDS011;3091;51.506;7.672;2023-02-28T00:44:30;17.20;;;16.60;;
6121;SDS011;3091;51.506;7.672;2023-02-28T00:46:57;18.20;;;17.50;;
6121;SDS011;3091;51.506;7.672;2023-02-28T00:49:23;17.60;;;16.90;;
6121;SDS011;3091;51.506;7.672;2023-02-28T00:51:49;17.50;;;16.80;;
6121;SDS011;3091;51.506;7.672;2023-02-28T00:54:15;18.40;;;17.60;;
6121;SDS011;3091;51.506;7.672;2023-02-28T00:56:42;18.07;;;17.37;;
6121;SDS011;3091;51.506;7.672;2023-02-28T00:59:08;17.40;;;16.70;;
6121;SDS011;3091;51.506;7.672;2023-02-28T01:01:34;17.90;;;17.20;;
6121;SDS011;3091;51.506;7.672;2023-02-28T01:04:00;18.50;;;17.80;;
6121;SDS011;3091;51.506;7.672;2023-02-28T01:06:26;17.57;;;16.87;;
6121;SDS011;3091;51.506;7.672;2023-02-28T01:08:52;17.80;;;17.10;;
6121;SDS011;3091;51.506;7.672;2023-02-28T01:11:18;17.53;;;16.83;;
6121;SDS011;3091;51.506;7.672;2023-02-28T01:13:45;17.87;;;17.17;;
6121;SDS011;3091;51.506;7.672;2023-02-28T01:16:11;18.27;;;17.47;;
6121;SDS011;3091;51.506;7.672;2023-02-28T01:18:37;18.00;;;17.20;;
6121;SDS011;3091;51.506;7.672;2023-02-28T01:21:07;18.20;;;17.40;;
6121;SDS011;3091;51.506;7.672;2023-02-28T01:23:34;17.50;;;16.80;;
6121;SDS011;3091;51.506;7.672;2023-02-28T01:26:06;17.50;;;16.80;;
6121;SDS011;3091;51.506;7.672;2023-02-28T01:28:32;18.60;;;17.70;;
6121;SDS011;3091;51.506;7.672;2023-02-28T01:30:58;18.20;;;17.40;;
6121;SDS011;3091;51.506;7.672;2023-02-28T01:33:25;17.93;;;17.13;;
6121;SDS011;3091;51.506;7.672;2023-02-28T01:35:57;18.17;;;17.47;;
6121;SDS011;3091;51.506;7.672;2023-02-28T01:38:23;18.17;;;17.47;;
6121;SDS011;3091;51.506;7.672;2023-02-28T01:40:50;18.70;;;18.00;;
6121;SDS011;3091;51.506;7.672;2023-02-28T01:43:21;18.27;;;17.57;;
6121;SDS011;3091;51.506;7.672;2023-02-28T01:45:49;18.50;;;17.80;;
6121;SDS011;3091;51.506;7.672;2023-02-28T01:48:15;18.50;;;17.80;;
6121;SDS011;3091;51.506;7.672;2023-02-28T01:50:43;17.20;;;16.50;;
6121;SDS011;3091;51.506;7.672;2023-02-28T01:53:10;18.37;;;17.67;;
6121;SDS011;3091;51.506;7.672;2023-02-28T01:55:39;17.53;;;16.83;;
6121;SDS011;3091;51.506;7.672;2023-02-28T01:58:06;17.07;;;16.37;;
6121;SDS011;3091;51.506;7.672;2023-02-28T02:00:34;17.80;;;17.10;;
6121;SDS011;3091;51.506;7.672;2023-02-28T02:03:05;17.03;;;16.33;;
6121;SDS011;3091;51.506;7.672;2023-02-28T02:05:32;17.60;;;16.90;;
6121;SDS011;3091;51.506;7.672;2023-02-28T02:08:05;18.30;;;17.50;;
6121;SDS011;3091;51.506;7.672;2023-02-28T02:16:28;17.80;;;17.00;;
6121;SDS011;3091;51.506;7.672;2023-02-28T02:18:40;16.67;;;16.07;;
6121;SDS011;3091;51.506;7.672;2023-02-28T02:29:35;16.60;;;16.00;;
6121;SDS011;3091;51.506;7.672;2023-02-28T02:32:14;17.13;;;16.43;;
6121;SDS011;3091;51.506;7.672;2023-02-28T02:37:25;17.30;;;16.60;;
6121;SDS011;3091;51.506;7.672;2023-02-28T02:42:31;20.67;;;19.83;;
6121;SDS011;3091;51.506;7.672;2023-02-28T02:45:03;17.90;;;17.20;;
6121;SDS011;3091;51.506;7.672;2023-02-28T02:47:30;16.70;;;16.10;;
6121;SDS011;3091;51.506;7.672;2023-02-28T02:49:58;17.30;;;16.70;;
6121;SDS011;3091;51.506;7.672;2023-02-28T02:52:30;16.60;;;16.00;;
6121;SDS011;3091;51.506;7.672;2023-02-28T02:54:58;16.90;;;16.30;;
6121;SDS011;3091;51.506;7.672;2023-02-28T02:57:35;16.97;;;16.37;;
6121;SDS011;3091;51.506;7.672;2023-02-28T03:00:05;17.13;;;16.43;;
6121;SDS011;3091;51.506;7.672;2023-02-28T03:02:33;17.60;;;16.87;;
6121;SDS011;3091;51.506;7.672;2023-02-28T03:05:08;16.00;;;15.40;;
6121;SDS011;3091;51.506;7.672;2023-02-28T03:07:38;16.63;;;16.00;;
6121;SDS011;3091;51.506;7.672;2023-02-28T03:10:25;16.33;;;15.73;;
6121;SDS011;3091;51.506;7.672;2023-02-28T03:12:51;16.47;;;15.80;;
6121;SDS011;3091;51.506;7.672;2023-02-28T03:15:24;16.47;;;15.87;;
6121;SDS011;3091;51.506;7.672;2023-02-28T03:17:55;16.10;;;15.50;;
6121;SDS011;3091;51.506;7.672;2023-02-28T03:22:56;16.90;;;16.20;;
6121;SDS011;3091;51.506;7.672;2023-02-28T03:30:19;17.50;;;16.80;;
6121;SDS011;3091;51.506;7.672;2023-02-28T03:32:58;18.97;;;18.17;;
6121;SDS011;3091;51.506;7.672;2023-02-28T03:35:30;17.20;;;16.60;;
6121;SDS011;3091;51.506;7.672;2023-02-28T03:38:01;17.00;;;16.40;;
6121;SDS011;3091;51.506;7.672;2023-02-28T03:40:30;17.27;;;16.67;;
6121;SDS011;3091;51.506;7.672;2023-02-28T03:43:02;16.80;;;16.20;;
6121;SDS011;3091;51.506;7.672;2023-02-28T03:45:30;16.70;;;16.10;;
6121;SDS011;3091;51.506;7.672;2023-02-28T03:48:03;17.00;;;16.40;;
6121;SDS011;3091;51.506;7.672;2023-02-28T03:50:34;17.33;;;16.63;;
6121;SDS011;3091;51.506;7.672;2023-02-28T03:53:07;16.70;;;16.10;;
6121;SDS011;3091;51.506;7.672;2023-02-28T03:55:36;17.10;;;16.50;;
6121;SDS011;3091;51.506;7.672;2023-02-28T04:00:51;17.10;;;16.40;;
6121;SDS011;3091;51.506;7.672;2023-02-28T04:03:18;16.10;;;15.50;;
6121;SDS011;3091;51.506;7.672;2023-02-28T04:05:51;16.30;;;15.70;;
6121;SDS011;3091;51.506;7.672;2023-02-28T04:08:18;13.90;;;13.40;;
6121;SDS011;3091;51.506;7.672;2023-02-28T04:10:45;14.10;;;13.60;;
6121;SDS011;3091;51.506;7.672;2023-02-28T04:13:14;13.00;;;12.60;;
6121;SDS011;3091;51.506;7.672;2023-02-28T04:15:39;13.20;;;12.80;;
6121;SDS011;3091;51.506;7.672;2023-02-28T04:18:06;13.60;;;13.10;;
6121;SDS011;3091;51.506;7.672;2023-02-28T04:20:32;14.80;;;14.20;;
6121;SDS011;3091;51.506;7.672;2023-02-28T04:22:58;15.50;;;14.90;;
6121;SDS011;3091;51.506;7.672;2023-02-28T04:25:24;15.80;;;15.20;;
6121;SDS011;3091;51.506;7.672;2023-02-28T04:27:50;16.93;;;16.23;;
6121;SDS011;3091;51.506;7.672;2023-02-28T04:30:16;17.40;;;16.70;;
6121;SDS011;3091;51.506;7.672;2023-02-28T04:32:42;15.40;;;14.90;;
6121;SDS011;3091;51.506;7.672;2023-02-28T04:35:08;16.30;;;15.70;;
6121;SDS011;3091;51.506;7.672;2023-02-28T04:37:34;16.00;;;15.40;;
6121;SDS011;3091;51.506;7.672;2023-02-28T04:40:01;16.00;;;15.40;;
6121;SDS011;3091;51.506;7.672;2023-02-28T04:42:27;16.00;;;15.40;;
6121;SDS011;3091;51.506;7.672;2023-02-28T04:45:00;17.10;;;16.40;;
6121;SDS011;3091;51.506;7.672;2023-02-28T04:47:26;17.17;;;16.47;;
6121;SDS011;3091;51.506;7.672;2023-02-28T04:49:54;17.33;;;16.63;;
6121;SDS011;3091;51.506;7.672;2023-02-28T04:52:20;17.20;;;16.50;;
6121;SDS011;3091;51.506;7.672;2023-02-28T04:54:46;17.80;;;17.10;;
6121;SDS011;3091;51.506;7.672;2023-02-28T04:57:12;17.80;;;17.10;;
6121;SDS011;3091;51.506;7.672;2023-02-28T04:59:39;17.80;;;17.10;;
6121;SDS011;3091;51.506;7.672;2023-02-28T05:02:05;17.60;;;16.90;;
6121;SDS011;3091;51.506;7.672;2023-02-28T05:04:32;17.10;;;16.50;;
6121;SDS011;3091;51.506;7.672;2023-02-28T05:06:59;18.17;;;17.47;;
6121;SDS011;3091;51.506;7.672;2023-02-28T05:09:25;17.60;;;16.90;;
6121;SDS011;3091;51.506;7.672;2023-02-28T05:11:51;17.27;;;16.67;;
6121;SDS011;3091;51.506;7.672;2023-02-28T05:14:17;17.70;;;17.00;;
6121;SDS011;3091;51.506;7.672;2023-02-28T05:16:43;18.47;;;17.77;;
6121;SDS011;3091;51.506;7.672;2023-02-28T05:19:09;18.30;;;17.60;;
6121;SDS011;3091;51.506;7.672;2023-02-28T05:21:41;18.60;;;17.80;;
6121;SDS011;3091;51.506;7.672;2023-02-28T05:24:13;18.00;;;17.20;;
6121;SDS011;3091;51.506;7.672;2023-02-28T05:26:40;17.40;;;16.70;;
6121;SDS011;3091;51.506;7.672;2023-02-28T05:29:06;17.60;;;16.90;;
6121;SDS011;3091;51.506;7.672;2023-02-28T05:31:32;17.70;;;17.00;;
6121;SDS011;3091;51.506;7.672;2023-02-28T05:33:58;17.30;;;16.60;;
6121;SDS011;3091;51.506;7.672;2023-02-28T05:36:25;17.40;;;16.70;;
6121;SDS011;3091;51.506;7.672;2023-02-28T05:38:51;17.60;;;16.90;;
6121;SDS011;3091;51.506;7.672;2023-02-28T05:41:17;17.50;;;16.80;;
6121;SDS011;3091;51.506;7.672;2023-02-28T05:43:47;17.40;;;16.70;;
6121;SDS011;3091;51.506;7.672;2023-02-28T05:46:16;17.10;;;16.40;;
6121;SDS011;3091;51.506;7.672;2023-02-28T05:48:42;18.00;;;17.20;;
6121;SDS011;3091;51.506;7.672;2023-02-28T05:51:08;17.30;;;16.60;;
6121;SDS011;3091;51.506;7.672;2023-02-28T05:53:36;17.30;;;16.60;;
6121;SDS011;3091;51.506;7.672;2023-02-28T05:56:03;17.30;;;16.60;;
6121;SDS011;3091;51.506;7.672;2023-02-28T05:58:29;18.00;;;17.20;;
6121;SDS011;3091;51.506;7.672;2023-02-28T06:00:59;18.60;;;17.90;;
6121;SDS011;3091;51.506;7.672;2023-02-28T06:03:25;18.33;;;17.63;;
6121;SDS011;3091;51.506;7.672;2023-02-28T06:05:51;18.10;;;17.40;;
6121;SDS011;3091;51.506;7.672;2023-02-28T06:08:17;18.50;;;17.80;;
6121;SDS011;3091;51.506;7.672;2023-02-28T06:10:43;18.70;;;18.00;;
6121;SDS011;3091;51.506;7.672;2023-02-28T06:13:10;17.80;;;17.10;;
6121;SDS011;3091;51.506;7.672;2023-02-28T06:15:37;17.90;;;17.20;;
6121;SDS011;3091;51.506;7.672;2023-02-28T06:18:03;18.63;;;17.93;;
6121;SDS011;3091;51.506;7.672;2023-02-28T06:20:30;17.90;;;17.20;;
6121;SDS011;3091;51.506;7.672;2023-02-28T06:22:56;18.33;;;17.63;;
6121;SDS011;3091;51.506;7.672;2023-02-28T06:25:23;17.80;;;17.10;;
6121;SDS011;3091;51.506;7.672;2023-02-28T06:27:49;17.10;;;16.40;;
6121;SDS011;3091;51.506;7.672;2023-02-28T06:30:16;17.20;;;16.50;;
6121;SDS011;3091;51.506;7.672;2023-02-28T06:32:42;16.90;;;16.20;;
6121;SDS011;3091;51.506;7.672;2023-02-28T06:35:08;16.80;;;16.10;;
6121;SDS011;3091;51.506;7.672;2023-02-28T06:37:35;16.73;;;16.03;;
6121;SDS011;3091;51.506;7.672;2023-02-28T06:40:01;16.60;;;15.90;;
6121;SDS011;3091;51.506;7.672;2023-02-28T06:42:27;17.00;;;16.30;;
6121;SDS011;3091;51.506;7.672;2023-02-28T06:44:55;17.17;;;16.47;;
6121;SDS011;3091;51.506;7.672;2023-02-28T06:47:22;16.80;;;16.10;;
6121;SDS011;3091;51.506;7.672;2023-02-28T06:49:48;16.70;;;16.00;;
6121;SDS011;3091;51.506;7.672;2023-02-28T06:52:14;17.43;;;16.53;;
6121;SDS011;3091;51.506;7.672;2023-02-28T06:54:40;16.73;;;16.03;;
6121;SDS011;3091;51.506;7.672;2023-02-28T06:57:06;17.50;;;16.80;;
6121;SDS011;3091;51.506;7.672;2023-02-28T06:59:32;17.10;;;16.40;;
6121;SDS011;3091;51.506;7.672;2023-02-28T07:02:00;16.90;;;16.20;;
6121;SDS011;3091;51.506;7.672;2023-02-28T07:04:27;16.80;;;16.10;;
6121;SDS011;3091;51.506;7.672;2023-02-28T07:06:53;16.70;;;16.00;;
6121;SDS011;3091;51.506;7.672;2023-02-28T07:09:21;16.70;;;16.00;;
6121;SDS011;3091;51.506;7.672;2023-02-28T07:11:47;16.50;;;15.80;;
6121;SDS011;3091;51.506;7.672;2023-02-28T07:14:13;15.80;;;15.20;;
6121;SDS011;3091;51.506;7.672;2023-02-28T07:16:38;15.37;;;14.77;;
6121;SDS011;3091;51.506;7.672;2023-02-28T07:19:05;15.40;;;14.80;;
6121;SDS011;3091;51.506;7.672;2023-02-28T07:21:33;14.90;;;14.40;;
6121;SDS011;3091;51.506;7.672;2023-02-28T07:23:59;15.07;;;14.47;;
6121;SDS011;3091;51.506;7.672;2023-02-28T07:26:25;14.17;;;13.67;;
6121;SDS011;3091;51.506;7.672;2023-02-28T07:28:51;13.70;;;13.20;;
6121;SDS011;3091;51.506;7.672;2023-02-28T07:31:18;13.60;;;13.10;;
6121;SDS011;3091;51.506;7.672;2023-02-28T07:33:44;13.70;;;13.20;;
6121;SDS011;3091;51.506;7.672;2023-02-28T07:36:12;15.00;;;14.50;;
6121;SDS011;3091;51.506;7.672;2023-02-28T07:38:40;13.50;;;13.00;;
6121;SDS011;3091;51.506;7.672;2023-02-28T07:41:06;18.10;;;17.33;;
6121;SDS011;3091;51.506;7.672;2023-02-28T07:43:33;12.90;;;12.50;;
6121;SDS011;3091;51.506;7.672;2023-02-28T07:46:03;13.40;;;12.80;;
6121;SDS011;3091;51.506;7.672;2023-02-28T07:48:30;13.10;;;12.70;;
6121;SDS011;3091;51.506;7.672;2023-02-28T07:50:57;13.10;;;12.70;;
6121;SDS011;3091;51.506;7.672;2023-02-28T07:53:24;13.27;;;12.80;;
6121;SDS011;3091;51.506;7.672;2023-02-28T07:55:50;13.10;;;12.60;;
6121;SDS011;3091;51.506;7.672;2023-02-28T07:58:16;12.03;;;11.63;;
6121;SDS011;3091;51.506;7.672;2023-02-28T08:00:42;11.90;;;11.50;;
6121;SDS011;3091;51.506;7.672;2023-02-28T08:03:10;12.20;;;11.80;;
6121;SDS011;3091;51.506;7.672;2023-02-28T08:05:40;11.63;;;11.23;;
6121;SDS011;3091;51.506;7.672;2023-02-28T08:08:07;12.00;;;11.60;;
6121;SDS011;3091;51.506;7.672;2023-02-28T08:10:33;12.00;;;11.60;;
6121;SDS011;3091;51.506;7.672;2023-02-28T08:12:59;11.83;;;11.43;;
6121;SDS011;3091;51.506;7.672;2023-02-28T08:15:25;11.90;;;11.50;;
6121;SDS011;3091;51.506;7.672;2023-02-28T08:17:51;10.87;;;10.57;;
6121;SDS011;3091;51.506;7.672;2023-02-28T08:20:17;10.97;;;10.67;;
6121;SDS011;3091;51.506;7.672;2023-02-28T08:22:44;11.00;;;10.70;;
6121;SDS011;3091;51.506;7.672;2023-02-28T08:25:10;11.00;;;10.60;;
6121;SDS011;3091;51.506;7.672;2023-02-28T08:27:36;12.30;;;11.90;;
6121;SDS011;3091;51.506;7.672;2023-02-28T08:30:02;11.93;;;11.53;;
6121;SDS011;3091;51.506;7.672;2023-02-28T08:32:28;12.17;;;11.77;;
6121;SDS011;3091;51.506;7.672;2023-02-28T08:34:54;11.63;;;11.23;;
6121;SDS011;3091;51.506;7.672;2023-02-28T08:37:20;11.80;;;11.40;;
6121;SDS011;3091;51.506;7.672;2023-02-28T08:39:46;12.23;;;11.83;;
6121;SDS011;3091;51.506;7.672;2023-02-28T08:42:12;12.20;;;11.80;;
6121;SDS011;3091;51.506;7.672;2023-02-28T08:44:38;12.40;;;11.90;;
6121;SDS011;3091;51.506;7.672;2023-02-28T08:47:05;14.23;;;13.57;;
6121;SDS011;3091;51.506;7.672;2023-02-28T08:49:31;11.50;;;11.10;;
6121;SDS011;3091;51.506;7.672;2023-02-28T08:51:57;11.07;;;10.77;;
6121;SDS011;3091;51.506;7.672;2023-02-28T08:54:23;10.57;;;10.27;;
6121;SDS011;3091;51.506;7.672;2023-02-28T08:56:49;11.20;;;10.80;;
6121;SDS011;3091;51.506;7.672;2023-02-28T08:59:15;11.87;;;11.47;;
6121;SDS011;3091;51.506;7.672;2023-02-28T09:01:42;12.30;;;11.90;;
6121;SDS011;3091;51.506;7.672;2023-02-28T09:04:08;12.20;;;11.80;;
6121;SDS011;3091;51.506;7.672;2023-02-28T09:06:35;11.97;;;11.57;;
6121;SDS011;3091;51.506;7.672;2023-02-28T09:09:02;11.90;;;11.50;;
6121;SDS011;3091;51.506;7.672;2023-02-28T09:11:30;12.10;;;11.70;;
6121;SDS011;3091;51.506;7.672;2023-02-28T09:13:57;12.60;;;12.13;;
6121;SDS011;3091;51.506;7.672;2023-02-28T09:16:25;12.47;;;12.00;;
6121;SDS011;3091;51.506;7.672;2023-02-28T09:18:51;12.70;;;11.97;;
6121;SDS011;3091;51.506;7.672;2023-02-28T09:21:17;12.70;;;12.30;;
6121;SDS011;3091;51.506;7.672;2023-02-28T09:23:44;12.20;;;11.80;;
6121;SDS011;3091;51.506;7.672;2023-02-28T09:26:21;12.50;;;12.10;;
6121;SDS011;3091;51.506;7.672;2023-02-28T09:28:48;12.10;;;11.70;;
6121;SDS011;3091;51.506;7.672;2023-02-28T09:31:23;13.13;;;12.63;;
6121;SDS011;3091;51.506;7.672;2023-02-28T09:33:50;12.60;;;12.10;;
6121;SDS011;3091;51.506;7.672;2023-02-28T09:36:16;12.57;;;12.17;;
6121;SDS011;3091;51.506;7.672;2023-02-28T09:38:45;12.30;;;11.90;;
6121;SDS011;3091;51.506;7.672;2023-02-28T09:41:13;12.30;;;11.90;;
6121;SDS011;3091;51.506;7.672;2023-02-28T09:43:40;13.50;;;12.90;;
6121;SDS011;3091;51.506;7.672;2023-02-28T09:49:17;12.47;;;11.97;;
6121;SDS011;3091;51.506;7.672;2023-02-28T09:51:49;12.20;;;11.80;;
6121;SDS011;3091;51.506;7.672;2023-02-28T09:54:17;13.10;;;11.83;;
6121;SDS011;3091;51.506;7.672;2023-02-28T09:56:45;11.97;;;11.57;;
6121;SDS011;3091;51.506;7.672;2023-02-28T09:59:31;12.53;;;12.00;;
6121;SDS011;3091;51.506;7.672;2023-02-28T10:02:04;13.77;;;13.20;;
6121;SDS011;3091;51.506;7.672;2023-02-28T10:04:47;12.83;;;12.33;;
6121;SDS011;3091;51.506;7.672;2023-02-28T10:09:44;11.67;;;11.27;;
6121;SDS011;3091;51.506;7.672;2023-02-28T10:12:11;11.50;;;11.10;;
6121;SDS011;3091;51.506;7.672;2023-02-28T10:14:37;13.43;;;12.60;;
6121;SDS011;3091;51.506;7.672;2023-02-28T10:17:12;12.77;;;12.27;;
6121;SDS011;3091;51.506;7.672;2023-02-28T10:24:46;12.87;;;12.47;;
6121;SDS011;3091;51.506;7.672;2023-02-28T10:27:16;14.30;;;13.80;;
6121;SDS011;3091;51.506;7.672;2023-02-28T10:29:44;14.47;;;13.97;;
6121;SDS011;3091;51.506;7.672;2023-02-28T10:32:11;13.80;;;13.30;;
6121;SDS011;3091;51.506;7.672;2023-02-28T10:34:39;13.57;;;13.17;;
6121;SDS011;3091;51.506;7.672;2023-02-28T10:37:05;14.60;;;14.10;;
6121;SDS011;3091;51.506;7.672;2023-02-28T10:39:41;15.43;;;14.83;;
6121;SDS011;3091;51.506;7.672;2023-02-28T10:42:20;14.77;;;14.27;;
6121;SDS011;3091;51.506;7.672;2023-02-28T10:44:50;13.97;;;13.47;;
6121;SDS011;3091;51.506;7.672;2023-02-28T10:47:30;14.03;;;13.57;;
6121;SDS011;3091;51.506;7.672;2023-02-28T10:49:56;14.20;;;13.70;;
6121;SDS011;3091;51.506;7.672;2023-02-28T10:57:46;13.80;;;13.40;;
6121;SDS011;3091;51.506;7.672;2023-02-28T11:00:17;14.03;;;13.40;;
6121;SDS011;3091;51.506;7.672;2023-02-28T11:02:51;14.63;;;14.13;;
6121;SDS011;3091;51.506;7.672;2023-02-28T11:05:25;14.30;;;13.80;;
6121;SDS011;3091;51.506;7.672;2023-02-28T11:07:55;14.47;;;13.97;;
6121;SDS011;3091;51.506;7.672;2023-02-28T11:10:23;14.87;;;14.37;;
6121;SDS011;3091;51.506;7.672;2023-02-28T11:12:53;14.50;;;14.00;;
6121;SDS011;3091;51.506;7.672;2023-02-28T11:15:24;14.70;;;14.20;;
6121;SDS011;3091;51.506;7.672;2023-02-28T11:17:57;14.60;;;14.10;;
6121;SDS011;3091;51.506;7.672;2023-02-28T11:20:25;14.60;;;14.10;;
6121;SDS011;3091;51.506;7.672;2023-02-28T11:22:52;14.50;;;14.00;;
6121;SDS011;3091;51.506;7.672;2023-02-28T11:27:50;15.87;;;14.90;;
6121;SDS011;3091;51.506;7.672;2023-02-28T11:30:35;14.90;;;14.40;;
6121;SDS011;3091;51.506;7.672;2023-02-28T11:35:47;14.57;;;14.10;;
6121;SDS011;3091;51.506;7.672;2023-02-28T11:38:14;13.87;;;13.47;;
6121;SDS011;3091;51.506;7.672;2023-02-28T11:40:55;14.77;;;13.90;;
6121;SDS011;3091;51.506;7.672;2023-02-28T11:48:27;14.53;;;14.03;;
6121;SDS011;3091;51.506;7.672;2023-02-28T11:51:05;14.80;;;14.30;;
6121;SDS011;3091;51.506;7.672;2023-02-28T12:08:52;13.73;;;13.23;;
6121;SDS011;3091;51.506;7.672;2023-02-28T12:14:06;12.80;;;12.30;;
6121;SDS011;3091;51.506;7.672;2023-02-28T12:17:42;13.17;;;12.67;;
6121;SDS011;3091;51.506;7.672;2023-02-28T12:27:16;12.73;;;12.23;;
6121;SDS011;3091;51.506;7.672;2023-02-28T12:29:51;11.80;;;11.40;;
6121;SDS011;3091;51.506;7.672;2023-02-28T12:32:27;12.73;;;12.00;;
6121;SDS011;3091;51.506;7.672;2023-02-28T12:37:58;11.90;;;11.50;;
6121;SDS011;3091;51.506;7.672;2023-02-28T12:40:28;11.70;;;11.30;;
6121;SDS011;3091;51.506;7.672;2023-02-28T12:42:56;12.50;;;12.00;;
6121;SDS011;3091;51.506;7.672;2023-02-28T12:45:24;11.73;;;11.33;;
6121;SDS011;3091;51.506;7.672;2023-02-28T12:47:52;12.63;;;12.13;;
6121;SDS011;3091;51.506;7.672;2023-02-28T12:50:22;12.33;;;11.53;;
6121;SDS011;3091;51.506;7.672;2023-02-28T12:53:09;12.07;;;11.67;;
6121;SDS011;3091;51.506;7.672;2023-02-28T12:58:26;11.40;;;11.00;;
6121;SDS011;3091;51.506;7.672;2023-02-28T13:06:10;13.57;;;13.07;;
6121;SDS011;3091;51.506;7.672;2023-02-28T13:11:08;13.70;;;13.20;;
6121;SDS011;3091;51.506;7.672;2023-02-28T13:13:48;14.27;;;13.67;;
6121;SDS011;3091;51.506;7.672;2023-02-28T13:16:22;14.07;;;13.47;;
6121;SDS011;3091;51.506;7.672;2023-02-28T13:18:48;13.00;;;12.60;;
6121;SDS011;3091;51.506;7.672;2023-02-28T13:21:27;12.80;;;12.20;;
6121;SDS011;3091;51.506;7.672;2023-02-28T13:24:03;11.80;;;11.40;;
6121;SDS011;3091;51.506;7.672;2023-02-28T13:28:58;11.90;;;11.50;;
6121;SDS011;3091;51.506;7.672;2023-02-28T13:31:25;11.67;;;11.27;;
6121;SDS011;3091;51.506;7.672;2023-02-28T13:36:27;12.13;;;11.73;;
6121;SDS011;3091;51.506;7.672;2023-02-28T13:38:55;13.33;;;12.73;;
6121;SDS011;3091;51.506;7.672;2023-02-28T13:44:02;12.53;;;12.13;;
6121;SDS011;3091;51.506;7.672;2023-02-28T13:46:28;14.67;;;13.97;;
6121;SDS011;3091;51.506;7.672;2023-02-28T13:48:54;13.27;;;12.77;;
6121;SDS011;3091;51.506;7.672;2023-02-28T13:51:27;14.23;;;13.63;;
6121;SDS011;3091;51.506;7.672;2023-02-28T13:53:56;13.63;;;13.13;;
6121;SDS011;3091;51.506;7.672;2023-02-28T13:56:41;14.23;;;13.73;;
6121;SDS011;3091;51.506;7.672;2023-02-28T14:06:52;11.60;;;11.20;;
6121;SDS011;3091;51.506;7.672;2023-02-28T14:09:26;11.60;;;11.20;;
6121;SDS011;3091;51.506;7.672;2023-02-28T14:11:53;11.80;;;11.40;;
6121;SDS011;3091;51.506;7.672;2023-02-28T14:17:05;11.90;;;11.50;;
6121;SDS011;3091;51.506;7.672;2023-02-28T14:19:34;12.27;;;11.87;;
6121;SDS011;3091;51.506;7.672;2023-02-28T14:22:04;13.80;;;13.20;;
6121;SDS011;3091;51.506;7.672;2023-02-28T14:37:33;13.90;;;13.37;;
6121;SDS011;3091;51.506;7.672;2023-02-28T14:40:00;13.00;;;12.53;;
6121;SDS011;3091;51.506;7.672;2023-02-28T14:42:33;13.30;;;12.80;;
6121;SDS011;3091;51.506;7.672;2023-02-28T14:44:59;13.77;;;13.20;;
6121;SDS011;3091;51.506;7.672;2023-02-28T14:47:30;13.20;;;12.70;;
6121;SDS011;3091;51.506;7.672;2023-02-28T14:49:58;13.60;;;13.10;;
6121;SDS011;3091;51.506;7.672;2023-02-28T14:52:25;13.20;;;12.70;;
6121;SDS011;3091;51.506;7.672;2023-02-28T14:54:53;13.60;;;13.10;;
6121;SDS011;3091;51.506;7.672;2023-02-28T14:57:29;13.83;;;13.33;;
6121;SDS011;3091;51.506;7.672;2023-02-28T14:59:59;14.87;;;14.17;;
6121;SDS011;3091;51.506;7.672;2023-02-28T15:02:29;12.50;;;12.10;;
6121;SDS011;3091;51.506;7.672;2023-02-28T15:04:57;12.20;;;11.80;;
6121;SDS011;3091;51.506;7.672;2023-02-28T15:07:23;12.13;;;11.73;;
6121;SDS011;3091;51.506;7.672;2023-02-28T15:10:09;12.00;;;11.60;;
6121;SDS011;3091;51.506;7.672;2023-02-28T15:12:38;12.07;;;11.67;;
6121;SDS011;3091;51.506;7.672;2023-02-28T15:15:06;12.20;;;11.80;;
6121;SDS011;3091;51.506;7.672;2023-02-28T15:17:32;12.30;;;11.90;;
6121;SDS011;3091;51.506;7.672;2023-02-28T15:19:59;12.47;;;12.07;;
6121;SDS011;3091;51.506;7.672;2023-02-28T15:22:31;13.00;;;12.50;;
6121;SDS011;3091;51.506;7.672;2023-02-28T15:24:58;13.00;;;12.50;;
6121;SDS011;3091;51.506;7.672;2023-02-28T15:27:25;12.97;;;12.47;;
6121;SDS011;3091;51.506;7.672;2023-02-28T15:29:55;12.10;;;11.70;;
6121;SDS011;3091;51.506;7.672;2023-02-28T15:32:37;12.50;;;12.00;;
6121;SDS011;3091;51.506;7.672;2023-02-28T15:38:17;13.37;;;12.77;;
6121;SDS011;3091;51.506;7.672;2023-02-28T15:40:49;13.97;;;13.40;;
6121;SDS011;3091;51.506;7.672;2023-02-28T15:43:39;13.53;;;13.03;;
6121;SDS011;3091;51.506;7.672;2023-02-28T15:46:06;13.10;;;12.60;;
6121;SDS011;3091;51.506;7.672;2023-02-28T15:51:11;13.97;;;13.40;;
6121;SDS011;3091;51.506;7.672;2023-02-28T15:53:41;13.53;;;13.03;;
6121;SDS011;3091;51.506;7.672;2023-02-28T15:56:19;13.00;;;12.50;;
6121;SDS011;3091;51.506;7.672;2023-02-28T15:58:46;12.50;;;12.10;;
6121;SDS011;3091;51.506;7.672;2023-02-28T16:01:19;12.63;;;12.20;;
6121;SDS011;3091;51.506;7.672;2023-02-28T16:03:48;12.90;;;12.40;;
6121;SDS011;3091;51.506;7.672;2023-02-28T16:08:53;12.13;;;11.70;;
6121;SDS011;3091;51.506;7.672;2023-02-28T16:11:20;12.13;;;11.73;;
6121;SDS011;3091;51.506;7.672;2023-02-28T16:13:47;11.70;;;11.30;;
6121;SDS011;3091;51.506;7.672;2023-02-28T16:16:21;11.70;;;11.30;;
6121;SDS011;3091;51.506;7.672;2023-02-28T16:18:47;12.03;;;11.60;;
6121;SDS011;3091;51.506;7.672;2023-02-28T16:21:13;11.43;;;11.03;;
6121;SDS011;3091;51.506;7.672;2023-02-28T16:23:39;12.40;;;12.00;;
6121;SDS011;3091;51.506;7.672;2023-02-28T16:26:06;12.00;;;11.60;;
6121;SDS011;3091;51.506;7.672;2023-02-28T16:28:34;12.97;;;12.47;;
6121;SDS011;3091;51.506;7.672;2023-02-28T16:31:01;12.00;;;11.60;;
6121;SDS011;3091;51.506;7.672;2023-02-28T16:33:32;12.40;;;12.00;;
6121;SDS011;3091;51.506;7.672;2023-02-28T16:35:59;12.40;;;11.90;;
6121;SDS011;3091;51.506;7.672;2023-02-28T16:38:25;12.63;;;12.20;;
6121;SDS011;3091;51.506;7.672;2023-02-28T16:40:51;12.07;;;11.67;;
6121;SDS011;3091;51.506;7.672;2023-02-28T16:43:19;12.23;;;11.83;;
6121;SDS011;3091;51.506;7.672;2023-02-28T16:45:47;12.23;;;11.83;;
6121;SDS011;3091;51.506;7.672;2023-02-28T16:48:16;13.87;;;13.37;;
6121;SDS011;3091;51.506;7.672;2023-02-28T16:50:42;12.83;;;12.43;;
6121;SDS011;3091;51.506;7.672;2023-02-28T16:53:09;12.90;;;12.50;;
6121;SDS011;3091;51.506;7.672;2023-02-28T16:55:35;12.43;;;12.03;;
6121;SDS011;3091;51.506;7.672;2023-02-28T16:58:02;12.17;;;11.77;;
6121;SDS011;3091;51.506;7.672;2023-02-28T17:00:29;12.47;;;12.07;;
6121;SDS011;3091;51.506;7.672;2023-02-28T17:02:56;11.60;;;11.20;;
6121;SDS011;3091;51.506;7.672;2023-02-28T17:05:22;11.50;;;11.10;;
6121;SDS011;3091;51.506;7.672;2023-02-28T17:07:49;11.33;;;10.97;;
6121;SDS011;3091;51.506;7.672;2023-02-28T17:10:16;11.90;;;11.50;;